Bonney Lake, Washington
Current Conditions -  °F | °C
As of 2:04 AM on Thursday 23 Oct 2014 (Local Time) from KTCM Reporting Station
Light Rain Light Rain  
Wind Chill: 52°   Ceiling: Unl
Heat Index: 52°   Visibility: 10mi
Dew Point: 50°   Wind: 2mph
Humidity: 94%   Direction: 190°S
Pressure: 29.74"   Gusts: NA
Location:  47.17°N, 122.17°W
Report Text: KTCM 230904Z AUTO 19002KT 10SM -RA SCT036 SCT055 SCT085 11/10 A2974 RMK AO2
Loading
Personal Weather Stations






























Interactive Weather Map
Tropical Storm Tracking
New forecast layout! Learn more

10-Day Weather Forecast

Advertisements
Track Severe Weather on mobile